Latest Weather Observations for Beaudesert AWS

IDQ60901

Issued at 6:25 pm EST Friday 24 October 2014 (issued every 10 minutes, with the page automatically refreshed every 10 minutes)

About weather observations | Map of Brisbane area stations | Latest observations for Brisbane area | Other Formats
Station Details ID: 040983 Name: BEAUDESERT DRUMLEY STREET Lat: -27.97 Lon: 152.99 Height: 47.81 m
Data from the previous 72 hours. | See also: Recent months at Beaudesert AWS
Date/Time
EST
Tmp

°C
App
Tmp
°C
Dew
Point
°C
Rel
Hum
%
Delta-T

°C
Wind Press
QNH
hPa
Press
MSL
hPa
Rain
since
9 am
mm
Dir
 
Spd
km/h
Gust
km/h
Spd
kts
Gust
kts
24/06:00pm 22.6 22.1 13.7 57 5.2 NNE 9 20 5 11 1020.4 1020.3 0.0
24/05:30pm 23.4 22.1 13.6 54 5.7 NNE 13 28 7 15 1019.6 1019.5 0.0
24/05:00pm 24.8 23.5 13.7 50 6.5 NNE 13 26 7 14 1019.1 1019.0 0.0
24/04:30pm 26.1 24.5 13.9 47 7.2 NE 15 24 8 13 1018.6 1018.5 0.0
24/04:00pm 27.1 24.9 13.4 42 8.1 NE 17 28 9 15 1018.1 1018.0 0.0
24/03:30pm 27.9 26.0 13.1 40 8.7 NE 15 28 8 15 1017.9 1017.8 0.0
24/03:00pm 28.7 26.7 12.6 37 9.4 NE 15 28 8 15 1017.9 1017.8 0.0
24/02:30pm 29.6 26.8 12.5 35 10.1 NE 19 24 10 13 1018.2 1018.1 0.0
24/02:00pm 30.3 29.5 11.8 32 10.8 NW 7 17 4 9 1018.4 1018.3 0.0
24/01:30pm 29.4 28.4 11.0 32 10.6 NNW 7 20 4 11 1018.7 1018.6 0.0
24/01:00pm 29.1 28.3 11.6 33 10.1 NNW 7 17 4 9 1019.3 1019.2 0.0
24/12:30pm 28.4 28.2 13.1 39 9.0 W 6 13 3 7 1019.7 1019.6 0.0
24/12:00pm 27.3 26.4 11.3 37 9.1 NNE 7 15 4 8 1020.2 1020.1 0.0
24/11:30am 27.3 27.1 12.9 41 8.4 WNW 6 9 3 5 1020.7 1020.6 0.0
24/11:00am 27.3 27.3 13.6 43 8.1 NNW 6 11 3 6 1021.3 1021.2 0.0
24/10:30am 25.3 25.0 13.2 47 7.1 W 7 15 4 8 1021.8 1021.7 0.0
24/10:00am 25.1 24.5 13.6 49 6.7 NNW 9 15 5 8 1022.1 1022.0 0.0
24/09:30am 23.8 23.4 12.4 48 6.5 NNW 6 9 3 5 1022.6 1022.5 0.0
24/09:00am 23.1 22.8 13.3 54 5.7 N 7 15 4 8 1023.0 1022.8 0.0
24/08:30am 22.1 21.6 13.7 59 4.9 NW 9 15 5 8 1023.0 1022.8 0.0
24/08:00am 21.4 21.4 13.6 61 4.5 NW 6 13 3 7 1022.9 1022.7 0.0
24/07:30am 20.6 21.5 14.0 66 3.8 S 2 4 1 2 1023.0 1022.8 0.0
24/07:00am 18.0 18.7 13.3 74 2.6 SSW 2 4 1 2 1022.9 1022.7 0.0
24/06:30am 17.0 18.1 13.5 80 2.0 CALM 0 4 0 2 1022.7 1022.6 0.0
24/06:00am 14.8 14.9 12.8 88 1.1 SE 4 6 2 3 1022.5 1022.4 0.0
24/05:30am 13.7 13.9 11.9 89 1.0 SSE 2 4 1 2 1022.2 1022.1 0.0
24/05:00am 13.8 14.4 11.8 88 1.1 CALM 0 0 0 0 1021.7 1021.6 0.0
24/04:30am 14.1 14.4 12.1 88 1.1 SE 2 4 1 2 1021.6 1021.5 0.0
24/04:00am 14.1 14.4 12.1 88 1.1 SE 2 6 1 3 1021.3 1021.2 0.0
24/03:30am 13.8 13.9 11.5 86 1.2 SSW 2 4 1 2 1021.0 1020.9 0.0
24/03:00am 14.9 15.2 12.2 84 1.5 SE 2 4 1 2 1020.8 1020.7 0.0
24/02:30am 14.1 14.7 12.0 87 1.1 CALM 0 2 0 1 1020.9 1020.8 0.0
24/02:00am 13.3 13.6 11.0 86 1.2 CALM 0 0 0 0 1020.9 1020.8 0.0
24/01:30am 13.4 13.7 10.8 84 1.4 CALM 0 0 0 0 1021.0 1020.9 0.0
24/01:00am 14.6 15.1 11.7 83 1.6 CALM 0 0 0 0 1021.2 1021.1 0.0
24/12:30am 15.0 15.0 11.2 78 2.0 ESE 2 4 1 2 1021.4 1021.3 0.0
24/12:00am 16.5 16.5 12.3 76 2.3 E 4 4 2 2 1021.4 1021.3 0.0
 
Date/Time
EST
Tmp

°C
App
Tmp
°C
Dew
Point
°C
Rel
Hum
%
Delta-T

°C
Wind Press
QNH
hPa
Press
MSL
hPa
Rain
since
9 am
mm
Dir
 
Spd
km/h
Gust
km/h
Spd
kts
Gust
kts
23/11:30pm 17.3 18.2 12.8 75 2.5 CALM 0 0 0 0 1021.6 1021.5 0.0
23/11:00pm 17.8 18.5 12.3 70 3.0 CALM 0 0 0 0 1021.7 1021.6 0.0
23/10:30pm 18.1 18.1 12.3 69 3.2 E 4 4 2 2 1021.7 1021.6 0.0
23/10:00pm 19.1 19.2 12.6 66 3.6 ENE 4 7 2 4 1021.5 1021.4 0.0
23/09:30pm 19.7 19.8 12.7 64 3.9 ENE 4 7 2 4 1021.8 1021.7 0.0
23/09:00pm 20.4 20.0 13.1 63 4.1 N 7 13 4 7 1021.1 1021.0 0.0
23/08:30pm 20.4 20.2 12.9 62 4.3 N 6 11 3 6 1021.2 1021.1 0.0
23/08:00pm 21.1 20.8 12.8 59 4.7 NNE 6 9 3 5 1021.1 1021.0 0.0
23/07:30pm 20.8 20.9 12.8 60 4.5 S 4 6 2 3 1021.2 1021.1 0.0
23/07:00pm 21.5 21.0 12.6 57 5.0 NNE 7 11 4 6 1020.1 1020.0 0.0
23/06:30pm 21.9 21.0 12.7 56 5.2 ENE 9 19 5 10 1019.6 1019.5 0.0
23/06:00pm 22.7 21.0 12.6 53 5.8 ENE 13 19 7 10 1018.9 1018.8 0.0
23/05:30pm 24.0 22.9 12.0 47 6.8 NNE 9 15 5 8 1018.4 1018.3 0.0
23/05:00pm 25.1 23.5 11.6 42 7.7 NE 11 19 6 10 1017.5 1017.4 0.0
23/04:30pm 25.9 23.4 10.9 39 8.5 NE 15 26 8 14 1016.8 1016.7 0.0
23/04:00pm 27.5 25.1 10.2 34 9.7 NE 13 24 7 13 1016.5 1016.4 0.0
23/03:30pm 28.7 26.3 9.9 31 10.6 N 13 24 7 13 1016.1 1016.0 0.0
23/03:00pm 30.0 28.8 9.5 28 11.5 N 6 9 3 5 1016.0 1015.9 0.0
23/02:30pm 29.4 28.8 9.0 28 11.3 WSW 2 6 1 3 1016.4 1016.3 0.0
23/02:00pm 29.0 28.1 9.2 29 11.0 NW 4 7 2 4 1016.9 1016.8 0.0
23/01:30pm 28.4 27.2 9.6 31 10.5 E 6 9 3 5 1017.5 1017.4 0.0
23/01:00pm 28.0 26.8 10.2 33 10.0 ENE 7 11 4 6 1018.1 1018.0 0.0
23/12:30pm 27.4 26.7 11.4 37 9.2 N 6 9 3 5 1018.8 1018.7 0.0
23/12:00pm 25.6 24.9 10.2 38 8.5 E 4 15 2 8 1019.3 1019.2 0.0
23/11:30am 25.3 24.3 10.4 39 8.3 NW 6 11 3 6 1020.2 1020.1 0.0
23/11:00am 25.1 24.2 10.6 40 8.1 S 6 24 3 13 1020.5 1020.4 0.0
23/10:30am 23.3 22.2 10.0 43 7.3 WSW 6 11 3 6 1021.3 1021.2 0.0
23/10:00am 23.1 22.0 9.8 43 7.2 NNW 6 11 3 6 1021.9 1021.8 0.0
23/09:30am 22.1 21.0 9.9 46 6.6 NNW 6 11 3 6 1022.4 1022.3 0.0
23/09:00am 21.2 20.1 10.1 49 6.0 NW 6 13 3 7 1022.6 1022.5 0.0
23/08:30am 20.4 20.4 11.3 56 5.0 NW 2 7 1 4 1023.0 1022.8 0.0
23/08:00am 19.4 20.1 12.2 63 4.0 CALM 0 4 0 2 1023.2 1023.0 0.0
23/07:30am 16.3 16.3 11.0 71 2.8 SW 2 6 1 3 1023.3 1023.1 0.0
23/07:00am 14.2 13.7 10.6 79 1.9 S 4 6 2 3 1023.1 1022.9 0.0
23/06:30am 12.4 12.0 9.8 84 1.3 S 2 6 1 3 1023.2 1023.0 0.0
23/06:00am 11.8 11.9 10.0 89 0.9 CALM 0 0 0 0 1022.6 1022.5 0.0
23/05:30am 9.5 9.1 8.4 93 0.5 CALM 0 0 0 0 1022.4 1022.3 0.0
23/05:00am 8.4 6.9 6.9 90 0.7 S 4 4 2 2 1022.2 1022.1 0.0
23/04:30am 9.2 8.6 7.6 90 0.8 CALM 0 0 0 0 1022.1 1022.0 0.0
23/04:00am 10.1 9.8 8.5 90 0.8 CALM 0 0 0 0 1022.1 1022.0 0.0
23/03:30am 10.5 10.0 9.3 92 0.6 E 2 4 1 2 1022.0 1021.9 0.0
23/03:00am 10.7 10.6 9.3 91 0.7 CALM 0 0 0 0 1022.1 1022.0 0.0
23/02:30am 10.3 10.1 8.9 91 0.7 CALM 0 0 0 0 1022.1 1022.0 0.0
23/02:00am 10.0 9.7 8.6 91 0.7 CALM 0 0 0 0 1022.2 1022.1 0.0
23/01:30am 9.5 8.9 7.6 88 0.9 CALM 0 0 0 0 1022.3 1022.2 0.0
23/01:00am 9.8 9.4 8.2 90 0.8 CALM 0 0 0 0 1022.6 1022.5 0.0
23/12:30am 9.6 9.1 7.9 89 0.8 CALM 0 0 0 0 1023.1 1022.9 0.0
23/12:00am 9.8 9.2 7.6 86 1.0 CALM 0 0 0 0 1023.2 1023.0 0.0
 
Date/Time
EST
Tmp

°C
App
Tmp
°C
Dew
Point
°C
Rel
Hum
%
Delta-T

°C
Wind Press
QNH
hPa
Press
MSL
hPa
Rain
since
9 am
mm
Dir
 
Spd
km/h
Gust
km/h
Spd
kts
Gust
kts
22/11:30pm 10.5 10.1 8.3 86 1.1 CALM 0 0 0 0 1023.4 1023.2 0.0
22/11:00pm 11.4 11.1 8.6 83 1.4 CALM 0 0 0 0 1023.6 1023.4 0.0
22/10:30pm 13.0 13.2 10.4 84 1.4 CALM 0 0 0 0 1023.6 1023.4 0.0
22/10:00pm 13.1 13.2 10.3 83 1.4 CALM 0 0 0 0 1023.6 1023.4 0.0
22/09:30pm 12.7 12.6 9.3 80 1.7 CALM 0 0 0 0 1023.6 1023.4 0.0
22/09:00pm 14.8 14.9 10.0 73 2.5 CALM 0 0 0 0 1023.6 1023.4 0.0
22/08:30pm 16.1 15.8 10.0 67 3.2 NE 2 6 1 3 1023.6 1023.4 0.0
22/08:00pm 17.5 17.0 10.9 65 3.5 ENE 4 7 2 4 1023.3 1023.1 0.0
22/07:30pm 17.3 17.0 10.2 63 3.8 NE 2 4 1 2 1023.1 1022.9 0.0
22/07:00pm 18.6 17.7 10.7 60 4.3 NE 6 11 3 6 1023.0 1022.8 0.0
22/06:30pm 19.0 17.6 10.8 59 4.4 E 9 15 5 8 1022.6 1022.5 0.0
22/06:00pm 19.8 16.9 11.0 57 4.8 E 17 26 9 14 1022.4 1022.3 0.0
22/05:30pm 20.8 18.3 10.9 53 5.4 ENE 15 26 8 14 1022.3 1022.2 0.0
22/05:00pm 21.8 19.2 10.6 49 6.1 NE 15 24 8 13 1022.0 1021.9 0.0
22/04:30pm 22.9 20.6 10.3 45 6.9 ENE 13 24 7 13 1021.7 1021.6 0.0
22/04:00pm 23.0 19.8 10.1 44 7.0 ENE 17 30 9 16 1021.6 1021.5 0.0
22/03:30pm 24.0 21.3 10.3 42 7.6 ENE 15 24 8 13 1021.7 1021.6 0.0
22/03:00pm 23.6 21.2 9.9 42 7.5 E 13 20 7 11 1021.7 1021.6 0.0
22/02:30pm 24.3 22.4 10.6 42 7.6 E 11 20 6 11 1021.8 1021.7 0.0
22/02:00pm 23.8 22.0 9.4 40 7.8 ESE 9 24 5 13 1022.1 1022.0 0.0
22/01:30pm 24.1 21.8 8.9 38 8.2 E 11 20 6 11 1022.4 1022.3 0.0
22/01:00pm 24.2 21.9 9.0 38 8.2 E 11 19 6 10 1022.6 1022.5 0.0
22/12:30pm 25.2 22.8 8.7 35 8.9 S 11 20 6 11 1023.2 1023.0 0.0
22/12:00pm 23.3 21.8 8.6 39 7.8 E 6 13 3 7 1023.8 1023.6 0.0
22/11:30am 23.5 21.7 9.5 41 7.6 SSE 9 15 5 8 1024.3 1024.1 0.0
22/11:00am 23.1 21.3 9.5 42 7.3 SSW 9 19 5 10 1024.8 1024.6 0.0
22/10:30am 22.7 20.0 10.2 45 6.8 SW 15 19 8 10 1025.1 1024.9 0.0
22/10:00am 22.4 19.7 10.2 46 6.6 S 15 22 8 12 1025.6 1025.4 0.0
22/09:30am 21.1 18.3 11.2 53 5.5 SSW 17 24 9 13 1025.8 1025.6 0.0
22/09:00am 20.5 18.9 11.4 56 5.0 SSW 11 19 6 10 1026.0 1025.8 0.0
22/08:30am 19.8 18.1 11.3 58 4.7 SSW 11 22 6 12 1026.0 1025.8 0.0
22/08:00am 19.4 17.5 11.9 62 4.1 SSW 13 19 7 10 1026.0 1025.8 0.0
22/07:30am 19.0 17.6 12.3 65 3.7 S 11 19 6 10 1025.9 1025.7 0.0
22/07:00am 17.6 16.7 12.5 72 2.8 SSW 9 15 5 8 1025.8 1025.6 0.0
22/06:30am 16.0 15.6 12.4 79 2.0 SSW 6 9 3 5 1025.9 1025.7 0.0
22/06:00am 15.7 15.2 12.1 79 2.0 SSW 6 7 3 4 1025.6 1025.4 0.0
22/05:30am 14.9 14.7 11.9 82 1.6 SSE 4 6 2 3 1025.3 1025.1 0.0
22/05:00am 13.8 13.4 11.0 83 1.5 S 4 6 2 3 1025.2 1025.0 0.0
22/04:30am 14.8 14.1 11.4 80 1.8 S 6 7 3 4 1025.1 1024.9 0.0
22/04:00am 14.6 13.9 11.4 81 1.7 SSE 6 9 3 5 1025.1 1024.9 0.0
22/03:30am 14.5 14.7 11.7 83 1.5 SE 2 6 1 3 1025.1 1024.9 0.0
22/03:00am 13.8 14.0 10.6 81 1.7 CALM 0 2 0 1 1025.2 1025.0 0.0
22/02:30am 14.9 15.4 11.5 80 1.8 CALM 0 0 0 0 1025.5 1025.3 0.0
22/02:00am 14.3 14.7 11.1 81 1.7 CALM 0 0 0 0 1025.7 1025.5 0.0
22/01:30am 14.9 15.3 11.1 78 2.0 CALM 0 0 0 0 1026.1 1025.9 0.0
22/01:00am 14.4 14.7 10.8 79 1.9 CALM 0 4 0 2 1026.4 1026.2 0.0
22/12:30am 13.4 13.2 10.4 82 1.6 NW 2 4 1 2 1026.9 1026.7 0.0
22/12:00am 13.8 14.0 10.6 81 1.7 CALM 0 0 0 0 1027.3 1027.1 0.0
 
Date/Time
EST
Tmp

°C
App
Tmp
°C
Dew
Point
°C
Rel
Hum
%
Delta-T

°C
Wind Press
QNH
hPa
Press
MSL
hPa
Rain
since
9 am
mm
Dir
 
Spd
km/h
Gust
km/h
Spd
kts
Gust
kts
21/11:30pm 13.8 13.3 10.8 82 1.6 NNE 4 4 2 2 1027.5 1027.3 0.0
21/11:00pm 12.9 12.8 9.4 79 1.8 CALM 0 0 0 0 1027.8 1027.6 0.0
21/10:30pm 14.2 13.8 9.8 75 2.3 NE 2 4 1 2 1027.9 1027.7 0.0
21/10:00pm 15.2 14.9 10.0 71 2.7 NE 2 4 1 2 1028.0 1027.8 0.0
21/09:30pm 15.7 15.4 10.2 70 2.9 S 2 4 1 2 1028.1 1027.9 0.0
21/09:00pm 16.0 15.0 10.3 69 3.0 ESE 6 7 3 4 1028.0 1027.8 0.0
21/08:30pm 16.8 16.3 10.6 67 3.3 S 4 6 2 3 1027.7 1027.5 0.0
21/08:00pm 16.8 15.8 10.4 66 3.4 SSE 6 9 3 5 1027.7 1027.5 0.0
21/07:30pm 18.2 17.2 11.0 63 3.9 SE 7 11 4 6 1027.3 1027.1 0.0
21/07:00pm 18.5 17.4 10.8 61 4.1 E 7 11 4 6 1026.9 1026.7 0.0
21/06:30pm 19.5 17.9 10.2 55 5.0 SE 9 15 5 8 1026.6 1026.4 0.0

Latest Capital City Observations: Canberra | Sydney | Melbourne | Brisbane | Adelaide | Perth | Hobart | Darwin

Other Formats:

Comma delimited format used in spreadsheet applications
http://www.bom.gov.au/fwo/IDQ60901/IDQ60901.95575.axf

JavaScript Object Notation format (JSON) in row-major order
http://www.bom.gov.au/fwo/IDQ60901/IDQ60901.95575.json